Time;durP1;ratioP1;P1;durP2;ratioP2;P2;SDS_P1;SDS_P2;PMS_P1;PMS_P2;Temp;Humidity;BMP_temperature;BMP_pressure;BME280_temperature;BME280_humidity;BME280_pressure;Samples;Min_cycle;Max_cycle;Signal;HPM_P1;HPM_P2
2023/03/25 00:01:31;;;;;;;5.63;1.33;;;;;;;9.88;91.39;99779.63;5052789;28;20539;-66
2023/03/25 00:03:59;;;;;;;8.23;1.53;;;;;;;9.84;91.97;99782.16;5052723;28;20470;-66
2023/03/25 00:06:27;;;;;;;5.53;1.40;;;;;;;9.79;91.98;99782.31;5052829;28;20473;-66
2023/03/25 00:08:55;;;;;;;4.93;1.07;;;;;;;9.73;92.51;99772.75;5052947;28;20496;-66
2023/03/25 00:11:23;;;;;;;6.50;1.43;;;;;;;9.64;92.72;99774.63;5052398;28;20489;-66
2023/03/25 00:13:50;;;;;;;5.10;0.93;;;;;;;9.62;93.64;99771.47;5052621;28;21025;-66
2023/03/25 00:16:17;;;;;;;4.90;1.10;;;;;;;9.65;93.14;99775.44;5052742;28;20488;-66
2023/03/25 00:18:46;;;;;;;9.67;1.33;;;;;;;9.58;93.33;99767.78;5052721;28;20446;-67
2023/03/25 00:21:13;;;;;;;4.60;1.10;;;;;;;9.50;92.81;99760.44;5052352;28;20568;-66
2023/03/25 00:23:41;;;;;;;5.50;1.37;;;;;;;9.49;93.62;99764.28;5052510;28;21017;-66
2023/03/25 00:26:09;;;;;;;7.43;1.67;;;;;;;9.49;94.30;99756.94;5052571;28;20438;-66
2023/03/25 00:28:38;;;;;;;6.20;1.30;;;;;;;9.45;94.39;99764.09;5052379;28;20446;-66
2023/03/25 00:31:06;;;;;;;6.93;1.50;;;;;;;9.41;94.97;99763.13;5054106;28;20444;-66
2023/03/25 00:33:34;;;;;;;7.47;1.57;;;;;;;9.37;95.80;99769.47;5056752;28;20450;-66
2023/03/25 00:36:01;;;;;;;6.50;1.87;;;;;;;9.33;96.43;99767.38;5057073;28;20572;-65
2023/03/25 00:38:32;;;;;;;7.70;2.00;;;;;;;9.32;96.90;99773.91;5057091;28;20806;-65
2023/03/25 00:41:05;;;;;;;8.37;2.10;;;;;;;9.29;96.64;99762.91;5056298;28;20428;-64
2023/03/25 00:43:33;;;;;;;5.97;1.47;;;;;;;9.22;96.81;99766.09;5056713;28;20438;-65
2023/03/25 00:46:00;;;;;;;7.03;1.67;;;;;;;9.21;97.05;99766.38;5056465;28;20955;-65
2023/03/25 00:48:27;;;;;;;6.07;1.80;;;;;;;9.16;97.54;99769.22;5056450;28;20450;-66
2023/03/25 00:50:53;;;;;;;5.53;1.23;;;;;;;9.14;97.35;99776.84;5056313;28;20437;-66
2023/03/25 00:53:20;;;;;;;6.40;1.87;;;;;;;9.12;97.96;99777.19;5055739;28;20445;-65
2023/03/25 00:55:47;;;;;;;7.17;1.60;;;;;;;9.08;98.34;99768.88;5056578;28;20476;-66
2023/03/25 00:58:13;;;;;;;5.90;1.40;;;;;;;9.10;98.16;99777.47;5056176;28;20534;-66
2023/03/25 01:00:41;;;;;;;6.37;1.53;;;;;;;9.10;98.23;99779.38;5056212;28;20450;-65
2023/03/25 01:03:08;;;;;;;4.90;1.23;;;;;;;9.11;98.10;99786.38;5055988;28;20484;-65
2023/03/25 01:05:35;;;;;;;7.07;1.57;;;;;;;9.09;98.71;99783.97;5056044;28;20610;-65
2023/03/25 01:08:02;;;;;;;6.40;1.30;;;;;;;9.07;98.33;99783.50;5056303;28;20529;-65
2023/03/25 01:10:29;;;;;;;6.23;1.30;;;;;;;9.07;98.08;99778.09;5056317;28;20454;-65
2023/03/25 01:12:55;;;;;;;4.97;1.13;;;;;;;9.05;98.56;99780.31;5055941;28;20438;-65
2023/03/25 01:15:22;;;;;;;5.43;1.33;;;;;;;9.12;98.10;99773.66;5055688;28;20478;-65
2023/03/25 01:17:50;;;;;;;9.83;1.73;;;;;;;9.07;97.89;99777.28;5055687;28;20513;-65
2023/03/25 01:20:17;;;;;;;47.00;3.07;;;;;;;9.06;97.57;99776.50;5056093;28;20477;-65
2023/03/25 01:22:44;;;;;;;18.73;1.67;;;;;;;9.06;97.79;99760.28;5055732;28;20489;-65
2023/03/25 01:25:10;;;;;;;5.20;1.30;;;;;;;9.06;98.80;99762.19;5055636;28;20474;-65
2023/03/25 01:27:37;;;;;;;32.20;2.03;;;;;;;9.05;98.51;99760.59;5055957;28;20552;-65
2023/03/25 01:30:04;;;;;;;7.40;1.50;;;;;;;9.04;98.54;99761.72;5055863;28;20452;-65
2023/03/25 01:32:31;;;;;;;9.40;1.60;;;;;;;9.04;98.76;99757.13;5055590;28;20434;-65
2023/03/25 01:34:58;;;;;;;5.03;1.40;;;;;;;9.02;99.11;99759.31;5054975;28;20851;-65
2023/03/25 01:37:26;;;;;;;6.00;1.47;;;;;;;9.02;99.99;99753.91;5055804;28;20517;-65
2023/03/25 01:39:52;;;;;;;5.30;1.40;;;;;;;9.04;99.06;99751.72;5055776;28;20469;-66
2023/03/25 01:42:19;;;;;;;18.73;2.00;;;;;;;9.08;98.95;99735.69;5054341;28;21017;-65
2023/03/25 01:45:15;;;;;;;12.83;2.20;;;;;;;9.03;99.56;99735.78;5054950;28;20553;-65
2023/03/25 01:47:43;;;;;;;5.60;1.03;;;;;;;9.04;99.61;99740.91;5055495;28;20452;-65
2023/03/25 01:50:13;;;;;;;17.83;2.10;;;;;;;9.05;99.35;99731.69;5055302;28;20533;-65
2023/03/25 01:52:44;;;;;;;5.27;1.30;;;;;;;9.07;98.97;99725.97;5055618;28;20822;-65
2023/03/25 01:55:11;;;;;;;14.97;1.67;;;;;;;9.04;99.36;99729.31;5055104;28;20470;-65
2023/03/25 01:57:42;;;;;;;4.90;0.90;;;;;;;9.06;99.65;99725.16;5054978;28;20450;-65
2023/03/25 02:00:11;;;;;;;44.27;6.03;;;;;;;9.16;99.38;99729.50;5055435;28;20499;-65
2023/03/25 02:02:39;;;;;;;30.07;2.10;;;;;;;9.17;98.27;99725.69;5055336;28;20486;-65
2023/03/25 02:05:10;;;;;;;9.30;1.10;;;;;;;9.23;97.97;99724.44;5055201;28;20466;-65
2023/03/25 02:07:45;;;;;;;9.03;1.23;;;;;;;9.29;97.55;99719.69;5054783;28;20530;-65
2023/03/25 02:10:12;;;;;;;5.00;0.90;;;;;;;9.34;96.99;99719.53;5055207;28;20480;-65
2023/03/25 02:12:40;;;;;;;27.27;2.77;;;;;;;9.32;97.06;99713.66;5055028;28;20521;-66
2023/03/25 02:15:10;;;;;;;5.93;1.43;;;;;;;9.32;98.27;99714.44;5054891;28;20524;-65
2023/03/25 02:17:48;;;;;;;5.57;1.43;;;;;;;9.40;97.93;99720.22;5054288;28;20947;-65
2023/03/25 02:20:43;;;;;;;11.93;1.37;;;;;;;9.40;96.83;99714.81;5055024;28;20435;-65
2023/03/25 02:23:40;;;;;;;5.13;0.80;;;;;;;9.44;96.54;99715.75;5054249;28;21009;-65
2023/03/25 02:26:48;;;;;;;17.87;1.47;;;;;;;9.46;95.62;99708.13;5054900;28;20463;-65
2023/03/25 02:29:27;;;;;;;4.90;0.73;;;;;;;9.45;95.43;99706.53;4998223;28;20454;-65
2023/03/25 02:32:12;;;;;;;7.13;1.00;;;;;;;9.49;95.98;99704.81;5054784;28;20433;-65
2023/03/25 02:35:06;;;;;;;4.43;0.90;;;;;;;9.51;95.75;99702.56;5054709;28;20465;-65
2023/03/25 02:38:01;;;;;;;18.83;1.47;;;;;;;9.53;95.70;99693.03;5054399;28;20442;-65
2023/03/25 02:40:36;;;;;;;5.27;1.00;;;;;;;9.58;95.22;99692.88;5054427;28;20445;-65
2023/03/25 02:43:08;;;;;;;55.60;2.03;;;;;;;9.65;95.20;99683.50;5054162;28;20979;-65
2023/03/25 02:45:40;;;;;;;17.10;1.70;;;;;;;9.65;94.81;99689.72;5054452;28;20557;-65
2023/03/25 02:48:12;;;;;;;33.67;1.97;;;;;;;9.66;95.29;99685.09;5054119;28;20422;-65
2023/03/25 02:50:44;;;;;;;7.93;1.70;;;;;;;9.63;95.47;99683.81;5053939;28;20434;-67
2023/03/25 02:53:17;;;;;;;15.80;1.37;;;;;;;9.70;95.18;99686.06;5053932;28;20962;-69
2023/03/25 02:55:46;;;;;;;4.47;0.77;;;;;;;9.75;94.97;99678.59;5054043;28;20434;-66
2023/03/25 02:58:17;;;;;;;5.10;1.10;;;;;;;9.79;94.38;99673.34;5054094;28;20446;-67
2023/03/25 03:00:44;;;;;;;5.03;0.97;;;;;;;9.79;94.30;99666.03;5053912;28;20446;-66
2023/03/25 03:03:11;;;;;;;24.53;2.30;;;;;;;9.83;94.70;99675.09;5054109;28;20569;-65
2023/03/25 03:05:39;;;;;;;6.53;1.40;;;;;;;9.90;94.35;99680.00;5053845;28;20466;-66
2023/03/25 03:08:31;;;;;;;4.87;1.17;;;;;;;9.95;94.04;99684.47;5053510;28;20474;-66
2023/03/25 03:11:05;;;;;;;18.23;1.70;;;;;;;9.99;93.82;99686.22;5054061;28;20441;-66
2023/03/25 03:13:45;;;;;;;4.43;0.90;;;;;;;9.96;95.32;99692.28;5053968;28;20860;-66
2023/03/25 03:16:23;;;;;;;4.70;1.03;;;;;;;9.86;96.65;99682.56;5053458;28;20549;-66
2023/03/25 03:19:03;;;;;;;15.50;1.23;;;;;;;9.78;98.57;99683.38;5044732;28;20445;-66
2023/03/25 03:21:37;;;;;;;7.60;1.03;;;;;;;9.69;99.91;99687.94;5053874;28;20457;-66
2023/03/25 03:24:13;;;;;;;5.30;1.20;;;;;;;9.62;100.00;99682.25;5053764;28;20550;-66
2023/03/25 03:26:45;;;;;;;8.23;1.07;;;;;;;9.58;100.00;99683.97;5053739;28;20431;-66
2023/03/25 03:29:16;;;;;;;5.03;0.80;;;;;;;9.55;100.00;99685.41;5052925;28;20809;-66
2023/03/25 03:31:47;;;;;;;6.40;1.20;;;;;;;9.52;100.00;99687.97;5053705;28;20528;-66
2023/03/25 03:34:20;;;;;;;6.70;1.40;;;;;;;9.49;100.00;99688.59;5053297;28;20987;-66
2023/03/25 03:36:51;;;;;;;4.30;0.80;;;;;;;9.48;100.00;99690.50;5053710;28;20430;-66
2023/03/25 03:39:23;;;;;;;4.30;0.60;;;;;;;9.40;100.00;99693.19;5053104;28;20870;-67
2023/03/25 03:41:54;;;;;;;6.73;1.23;;;;;;;9.29;100.00;99690.75;5053292;28;20930;-67
2023/03/25 03:44:26;;;;;;;4.20;0.80;;;;;;;9.26;100.00;99688.69;5053623;28;20470;-67
2023/03/25 03:46:58;;;;;;;6.13;1.17;;;;;;;9.19;100.00;99682.16;5053285;28;20461;-67
2023/03/25 03:49:32;;;;;;;5.17;1.37;;;;;;;9.17;100.00;99676.28;5052744;28;20434;-67
2023/03/25 03:52:07;;;;;;;6.37;1.10;;;;;;;9.12;100.00;99679.09;5053403;28;20427;-68
2023/03/25 03:54:42;;;;;;;7.53;0.90;;;;;;;9.05;100.00;99674.97;5053034;28;21025;-67
2023/03/25 03:57:13;;;;;;;4.20;0.63;;;;;;;9.02;100.00;99672.88;5053243;28;20426;-68
2023/03/25 03:59:46;;;;;;;5.13;0.90;;;;;;;9.04;100.00;99669.88;5052777;28;20808;-67
2023/03/25 04:02:23;;;;;;;5.10;1.30;;;;;;;8.99;100.00;99672.72;5052798;28;20470;-67
2023/03/25 04:04:50;;;;;;;5.50;1.17;;;;;;;9.00;100.00;99661.59;5052747;28;20967;-67
2023/03/25 04:07:19;;;;;;;5.03;1.20;;;;;;;8.96;100.00;99662.53;5052878;28;20470;-68
2023/03/25 04:09:55;;;;;;;8.57;1.80;;;;;;;8.98;100.00;99666.50;5052837;28;20434;-67
2023/03/25 04:12:26;;;;;;;6.33;1.27;;;;;;;9.00;100.00;99674.31;5033258;28;20455;-67
2023/03/25 04:14:53;;;;;;;5.27;1.30;;;;;;;9.01;100.00;99679.41;5032851;28;20463;-67
2023/03/25 04:17:20;;;;;;;4.93;0.90;;;;;;;9.03;100.00;99674.50;5032717;28;20838;-67
2023/03/25 04:19:47;;;;;;;10.10;1.50;;;;;;;9.05;100.00;99676.88;5037217;28;20476;-67
2023/03/25 04:22:16;;;;;;;8.87;1.40;;;;;;;9.08;100.00;99681.66;5052372;28;20486;-68
2023/03/25 04:24:43;;;;;;;12.80;1.50;;;;;;;9.09;100.00;99683.25;5052922;28;20549;-67
2023/03/25 04:27:12;;;;;;;4.60;0.97;;;;;;;9.10;100.00;99685.63;5052609;28;20446;-67
2023/03/25 04:29:40;;;;;;;5.63;1.00;;;;;;;9.09;100.00;99681.34;5052749;28;20804;-68
2023/03/25 04:32:07;;;;;;;5.83;1.13;;;;;;;9.09;100.00;99673.22;5052454;28;20446;-67
2023/03/25 04:34:34;;;;;;;4.93;0.77;;;;;;;9.04;100.00;99669.88;5052813;28;20462;-67
2023/03/25 04:37:00;;;;;;;12.97;1.27;;;;;;;8.98;100.00;99668.41;5052289;28;20537;-66
2023/03/25 04:39:28;;;;;;;7.60;0.90;;;;;;;8.97;100.00;99672.22;5052506;28;21002;-66
2023/03/25 04:41:55;;;;;;;5.50;1.10;;;;;;;8.97;100.00;99670.31;5052070;28;21067;-66
2023/03/25 04:44:24;;;;;;;7.03;1.27;;;;;;;8.96;100.00;99676.03;5052668;28;20490;-66
2023/03/25 04:46:52;;;;;;;4.47;0.77;;;;;;;8.94;100.00;99681.78;5052756;28;20450;-66
2023/03/25 04:49:21;;;;;;;4.73;0.67;;;;;;;8.95;100.00;99677.16;5052841;28;20448;-66
2023/03/25 04:51:48;;;;;;;4.77;0.70;;;;;;;8.95;100.00;99677.16;5052344;28;20443;-66
2023/03/25 04:54:15;;;;;;;5.10;0.73;;;;;;;8.94;100.00;99675.53;5052511;28;20588;-66
2023/03/25 04:56:42;;;;;;;5.30;0.67;;;;;;;8.96;100.00;99674.13;5052365;28;20434;-66
2023/03/25 04:59:09;;;;;;;4.70;1.03;;;;;;;8.96;100.00;99679.53;5052369;28;20963;-66
2023/03/25 05:01:40;;;;;;;5.13;0.97;;;;;;;9.00;100.00;99677.00;5052107;28;20441;-66
2023/03/25 05:04:11;;;;;;;7.30;1.10;;;;;;;8.96;100.00;99674.13;5051027;28;20486;-66
2023/03/25 05:06:39;;;;;;;7.00;1.30;;;;;;;8.92;100.00;99678.56;5052348;28;20439;-67
2023/03/25 05:09:06;;;;;;;5.20;1.30;;;;;;;8.93;100.00;99671.25;5052233;28;20438;-67
2023/03/25 05:11:35;;;;;;;5.23;1.47;;;;;;;8.93;100.00;99671.25;5052217;28;20530;-66
2023/03/25 05:14:02;;;;;;;5.30;1.17;;;;;;;8.94;100.00;99678.25;5052069;28;20458;-66
2023/03/25 05:16:29;;;;;;;10.63;1.37;;;;;;;8.93;100.00;99679.38;5082303;22;20945;-73
2023/03/25 05:18:57;;;;;;;5.13;1.30;;;;;;;8.96;100.00;99673.34;5075133;28;20938;-73
2023/03/25 05:21:24;;;;;;;4.53;0.97;;;;;;;8.93;100.00;99666.66;5076335;28;20523;-73
2023/03/25 05:23:51;;;;;;;5.23;1.13;;;;;;;8.98;100.00;99673.81;5076091;28;20485;-72
2023/03/25 05:26:19;;;;;;;5.73;1.20;;;;;;;9.04;100.00;99669.88;5065773;28;20472;-72
2023/03/25 05:28:50;;;;;;;6.20;0.90;;;;;;;9.03;100.00;99670.97;5056456;28;20470;-71
2023/03/25 05:31:16;;;;;;;6.10;1.40;;;;;;;9.06;100.00;99665.75;5056185;28;20484;-72
2023/03/25 05:33:43;;;;;;;4.53;0.97;;;;;;;9.09;100.00;99673.22;5056240;28;20434;-73
2023/03/25 05:36:13;;;;;;;4.20;0.60;;;;;;;9.15;100.00;99673.06;5056255;28;20462;-74
2023/03/25 05:38:42;;;;;;;4.10;0.60;;;;;;;9.17;100.00;99678.97;5056204;28;20441;-65
2023/03/25 05:41:10;;;;;;;5.17;0.80;;;;;;;9.21;100.00;99680.75;5055801;28;20446;-70
2023/03/25 05:43:37;;;;;;;4.70;0.80;;;;;;;9.31;100.00;99682.34;5055507;28;21007;-68
2023/03/25 05:46:04;;;;;;;5.63;0.80;;;;;;;9.35;100.00;99686.81;5055734;28;20462;-68
2023/03/25 05:48:31;;;;;;;6.50;1.03;;;;;;;9.38;100.00;99687.28;5055448;28;21009;-68
2023/03/25 05:50:58;;;;;;;4.80;0.83;;;;;;;9.39;100.00;99692.38;5062661;28;20452;-67
2023/03/25 05:53:29;;;;;;;5.40;0.80;;;;;;;9.39;100.00;99686.97;5075354;28;20938;-68
2023/03/25 05:55:56;;;;;;;9.93;0.70;;;;;;;9.39;100.00;99694.28;5075536;28;20445;-68
2023/03/25 05:58:23;;;;;;;4.70;0.93;;;;;;;9.40;100.00;99693.19;5075541;28;20533;-68
2023/03/25 06:00:50;;;;;;;4.33;0.70;;;;;;;9.41;100.00;99692.84;5075462;28;20445;-68
2023/03/25 06:03:19;;;;;;;7.50;0.60;;;;;;;9.44;100.00;99704.94;5075335;28;20491;-66
2023/03/25 06:05:46;;;;;;;6.50;0.73;;;;;;;9.48;100.00;99708.63;5075113;28;20952;-68
2023/03/25 06:08:13;;;;;;;5.60;1.00;;;;;;;9.49;100.00;99702.09;5075426;28;20453;-68
2023/03/25 06:10:44;;;;;;;4.80;0.80;;;;;;;9.47;100.00;99701.59;5075352;28;20445;-68
2023/03/25 06:13:11;;;;;;;4.50;0.90;;;;;;;9.46;100.00;99708.91;5075329;28;20433;-68
2023/03/25 06:15:39;;;;;;;4.70;0.90;;;;;;;9.43;100.00;99714.97;5075099;28;20441;-68
2023/03/25 06:18:06;;;;;;;4.50;0.80;;;;;;;9.39;100.00;99715.91;5074825;28;20457;-68
2023/03/25 06:20:32;;;;;;;4.43;0.60;;;;;;;9.39;100.00;99713.22;5074789;28;20532;-68
2023/03/25 06:22:59;;;;;;;4.53;0.63;;;;;;;9.37;100.00;99718.91;5074695;28;21017;-69
2023/03/25 06:25:27;;;;;;;4.60;0.60;;;;;;;9.42;100.00;99715.25;5075090;28;20460;-69
2023/03/25 06:27:57;;;;;;;4.30;0.60;;;;;;;9.48;100.00;99714.81;5074809;28;20487;-67
2023/03/25 06:30:24;;;;;;;8.23;0.77;;;;;;;9.59;100.00;99715.31;5074784;28;20449;-69
2023/03/25 06:32:51;;;;;;;4.73;0.90;;;;;;;9.65;100.00;99715.94;5074915;28;20445;-68
2023/03/25 06:35:18;;;;;;;4.87;0.77;;;;;;;9.67;100.00;99724.56;5074886;28;20451;-68
2023/03/25 06:37:46;;;;;;;4.53;0.60;;;;;;;9.67;100.00;99724.56;5074728;28;20458;-70
2023/03/25 06:40:14;;;;;;;7.40;0.70;;;;;;;9.66;100.00;99720.25;5074649;28;20449;-73
2023/03/25 06:42:41;;;;;;;8.17;1.23;;;;;;;9.72;100.00;99716.28;5073899;28;20964;-72
2023/03/25 06:45:11;;;;;;;9.53;1.03;;;;;;;9.69;100.00;99715.00;5074777;28;20448;-72
2023/03/25 06:47:38;;;;;;;4.87;0.77;;;;;;;9.66;100.00;99714.84;5074260;28;20986;-72
2023/03/25 06:50:06;;;;;;;5.00;1.10;;;;;;;9.70;100.00;99722.00;5074124;28;20441;-72
2023/03/25 06:52:32;;;;;;;4.27;0.67;;;;;;;9.72;100.00;99710.88;5074356;28;20449;-67
2023/03/25 06:54:59;;;;;;;5.13;1.00;;;;;;;9.78;100.00;99710.41;5074713;28;20429;-73
2023/03/25 06:57:25;;;;;;;4.00;0.40;;;;;;;9.82;100.00;99714.06;5074661;28;20461;-72
2023/03/25 06:59:52;;;;;;;4.40;0.60;;;;;;;9.93;99.43;99713.75;5074441;28;20441;-67
2023/03/25 07:02:20;;;;;;;3.97;0.50;;;;;;;9.97;99.68;99701.97;5073963;28;20442;-64
2023/03/25 07:04:46;;;;;;;6.87;0.90;;;;;;;10.02;99.49;99714.56;5073585;28;21020;-65
2023/03/25 07:07:13;;;;;;;4.40;0.80;;;;;;;10.08;99.67;99718.69;5054214;28;20511;-64
2023/03/25 07:09:39;;;;;;;4.20;0.60;;;;;;;10.14;98.52;99722.84;5054150;28;20445;-64
2023/03/25 07:12:07;;;;;;;9.07;0.80;;;;;;;10.20;98.45;99718.03;5073438;28;20456;-64
2023/03/25 07:14:33;;;;;;;5.00;0.87;;;;;;;10.26;98.33;99723.00;5073707;28;20452;-64
2023/03/25 07:17:00;;;;;;;6.00;1.20;;;;;;;10.34;97.64;99716.78;5073539;28;20473;-64
2023/03/25 07:19:28;;;;;;;4.37;0.70;;;;;;;10.36;97.36;99724.59;5073907;28;20442;-64
2023/03/25 07:21:54;;;;;;;5.83;1.20;;;;;;;10.45;96.21;99727.28;5073893;28;20445;-64
2023/03/25 07:24:21;;;;;;;4.90;0.90;;;;;;;10.56;95.18;99728.53;5073699;28;20896;-64
2023/03/25 07:26:48;;;;;;;4.00;0.50;;;;;;;10.65;94.85;99720.38;5073740;28;20483;-64
2023/03/25 07:29:14;;;;;;;4.20;0.60;;;;;;;10.75;94.08;99726.25;5073746;28;20445;-63
2023/03/25 07:31:41;;;;;;;4.20;0.70;;;;;;;10.84;93.12;99727.00;5073546;28;20535;-68
2023/03/25 07:34:08;;;;;;;5.40;0.63;;;;;;;10.93;91.45;99726.19;5073327;28;20449;-68
2023/03/25 07:36:36;;;;;;;5.17;0.83;;;;;;;10.91;89.70;99733.88;5073326;28;20469;-68
2023/03/25 07:39:03;;;;;;;4.20;0.60;;;;;;;10.96;89.44;99741.81;5073608;28;20473;-68
2023/03/25 07:41:29;;;;;;;6.30;0.60;;;;;;;11.08;90.09;99733.81;5072834;28;20459;-67
2023/03/25 07:43:56;;;;;;;5.37;0.90;;;;;;;11.17;89.37;99733.75;5073423;28;20477;-68
2023/03/25 07:46:23;;;;;;;7.40;0.90;;;;;;;11.28;87.72;99743.09;5073088;28;20493;-68
2023/03/25 07:48:49;;;;;;;4.87;0.73;;;;;;;11.36;84.68;99740.34;5073239;28;20441;-68
2023/03/25 07:51:16;;;;;;;4.73;0.87;;;;;;;11.43;83.63;99745.28;5073088;28;20963;-68
2023/03/25 07:53:45;;;;;;;4.70;0.80;;;;;;;11.56;82.40;99746.16;5073101;28;20943;-68
2023/03/25 07:56:12;;;;;;;4.10;0.50;;;;;;;11.65;82.02;99732.56;5072910;28;20488;-69
2023/03/25 07:58:39;;;;;;;5.27;0.63;;;;;;;11.73;80.96;99742.53;5073250;28;20448;-68
2023/03/25 08:01:06;;;;;;;4.27;0.60;;;;;;;11.76;79.72;99739.16;5072838;28;20445;-68
2023/03/25 08:03:33;;;;;;;4.40;0.80;;;;;;;11.75;80.70;99741.09;5073039;28;20520;-68
2023/03/25 08:06:01;;;;;;;5.13;0.70;;;;;;;11.82;81.66;99745.97;5073145;28;20530;-69
2023/03/25 08:08:29;;;;;;;4.50;0.73;;;;;;;11.83;79.91;99736.78;5073070;28;20445;-65
2023/03/25 08:10:57;;;;;;;9.90;1.00;;;;;;;11.82;80.95;99744.13;5072881;28;20441;-65
2023/03/25 08:13:24;;;;;;;5.23;0.83;;;;;;;11.86;80.82;99749.66;5073175;28;20495;-70
2023/03/25 08:15:51;;;;;;;4.80;0.93;;;;;;;11.76;76.95;99745.38;5072967;28;20461;-69
2023/03/25 08:18:18;;;;;;;5.70;0.97;;;;;;;11.77;77.33;99743.47;5073152;28;20430;-69
2023/03/25 08:20:45;;;;;;;9.03;1.10;;;;;;;11.68;78.54;99743.53;5072343;28;20508;-70
2023/03/25 08:23:18;;;;;;;4.80;0.70;;;;;;;11.71;78.64;99750.22;5070447;28;20445;-72
2023/03/25 08:25:47;;;;;;;4.83;0.73;;;;;;;11.70;78.84;99743.22;5064806;28;20443;-70
2023/03/25 08:28:20;;;;;;;4.10;0.60;;;;;;;11.74;78.35;99750.38;5067674;28;20469;-70
2023/03/25 08:30:48;;;;;;;4.10;0.50;;;;;;;11.77;77.27;99744.25;5072683;28;20981;-69
2023/03/25 08:33:17;;;;;;;5.13;0.80;;;;;;;11.61;81.64;99745.97;5072272;28;20809;-71
2023/03/25 08:35:44;;;;;;;4.70;0.83;;;;;;;11.20;84.89;99741.22;5064049;28;20540;-68
2023/03/25 08:38:11;;;;;;;6.63;1.10;;;;;;;11.01;87.05;99738.91;5072909;28;20511;-62
2023/03/25 08:40:37;;;;;;;4.93;0.90;;;;;;;10.94;85.45;99736.72;5072751;28;20519;-63
2023/03/25 08:43:06;;;;;;;4.57;0.70;;;;;;;10.98;84.88;99731.44;5072375;28;20445;-63
2023/03/25 08:45:35;;;;;;;4.10;0.60;;;;;;;11.04;85.88;99738.28;5072546;28;20542;-64
2023/03/25 08:48:02;;;;;;;4.10;0.50;;;;;;;11.16;85.31;99738.41;5072734;28;20465;-65
2023/03/25 08:50:29;;;;;;;6.20;0.80;;;;;;;11.23;82.24;99740.59;5072489;28;20441;-64
2023/03/25 08:52:57;;;;;;;4.00;0.40;;;;;;;11.13;83.45;99736.31;5075538;28;20469;-64
2023/03/25 08:55:24;;;;;;;6.13;0.60;;;;;;;11.17;84.15;99726.44;5075860;28;20445;-63
2023/03/25 08:57:51;;;;;;;4.00;0.53;;;;;;;11.35;82.80;99733.34;5076353;28;20461;-63
2023/03/25 09:00:22;;;;;;;4.47;0.90;;;;;;;11.45;82.86;99744.94;5072960;28;20438;-64
2023/03/25 09:02:50;;;;;;;4.10;0.50;;;;;;;11.48;80.29;99742.38;5056372;28;20433;-64
2023/03/25 09:05:17;;;;;;;7.80;0.97;;;;;;;11.52;81.53;99748.75;5067691;28;20487;-63
2023/03/25 09:07:44;;;;;;;5.30;0.77;;;;;;;11.54;82.19;99759.25;5076672;28;20469;-63
2023/03/25 09:10:11;;;;;;;5.33;0.80;;;;;;;11.21;89.02;99753.69;5076556;28;20985;-64
2023/03/25 09:12:38;;;;;;;4.10;0.73;;;;;;;10.94;92.71;99754.91;5071777;28;20512;-63
2023/03/25 09:15:06;;;;;;;4.70;0.97;;;;;;;10.70;96.26;99750.00;5056672;28;20434;-64
2023/03/25 09:17:33;;;;;;;6.87;0.80;;;;;;;10.52;97.28;99752.75;5067378;28;20473;-63
2023/03/25 09:20:01;;;;;;;6.80;0.87;;;;;;;10.37;93.07;99755.16;5076306;28;20483;-63
2023/03/25 09:22:27;;;;;;;6.17;1.17;;;;;;;10.24;92.60;99754.19;5076405;28;20473;-64
2023/03/25 09:24:54;;;;;;;4.77;0.70;;;;;;;10.24;91.67;99759.59;5076151;28;20573;-64
2023/03/25 09:27:21;;;;;;;12.23;0.80;;;;;;;10.25;91.74;99758.50;5076301;28;20465;-66
2023/03/25 09:29:47;;;;;;;4.03;0.60;;;;;;;10.19;92.70;99755.16;5074947;28;20441;-68
2023/03/25 09:32:14;;;;;;;4.40;0.70;;;;;;;10.27;92.62;99754.38;5076031;28;20528;-69
2023/03/25 09:34:40;;;;;;;5.00;0.90;;;;;;;10.43;92.06;99753.88;5075484;28;20437;-69
2023/03/25 09:37:08;;;;;;;4.00;0.50;;;;;;;10.67;87.81;99751.47;5075884;28;20552;-69
2023/03/25 09:39:35;;;;;;;4.83;0.90;;;;;;;10.92;87.93;99747.06;5076298;28;20870;-69
2023/03/25 09:42:13;;;;;;;5.50;0.80;;;;;;;11.14;88.28;99740.63;5075464;28;20825;-69
2023/03/25 09:44:53;;;;;;;4.20;0.60;;;;;;;11.46;85.48;99746.53;5073678;28;20919;-69
2023/03/25 09:47:21;;;;;;;5.33;1.30;;;;;;;11.80;84.47;99743.59;5074195;28;20541;-69
2023/03/25 09:49:52;;;;;;;4.40;0.83;;;;;;;12.03;81.75;99752.25;5073231;28;20451;-70
2023/03/25 09:52:25;;;;;;;4.20;0.53;;;;;;;12.08;75.86;99749.31;5072723;28;20433;-68
2023/03/25 09:54:55;;;;;;;5.53;0.60;;;;;;;12.14;78.63;99744.50;5073118;28;20426;-70
2023/03/25 09:57:27;;;;;;;5.80;1.23;;;;;;;12.15;77.78;99762.38;5072110;28;20544;-70
2023/03/25 09:59:57;;;;;;;4.30;0.73;;;;;;;12.20;74.81;99750.53;5072714;28;20426;-70
2023/03/25 10:02:35;;;;;;;4.80;0.70;;;;;;;12.10;74.82;99763.38;5072067;28;21017;-65
2023/03/25 10:05:20;;;;;;;4.33;0.63;;;;;;;12.27;74.02;99762.44;5072354;28;21006;-63
2023/03/25 10:08:02;;;;;;;4.40;0.60;;;;;;;12.29;73.81;99752.03;5073081;28;20465;-65
2023/03/25 10:10:36;;;;;;;4.10;0.50;;;;;;;12.47;74.48;99770.91;5074307;28;20433;-62
2023/03/25 10:13:12;;;;;;;4.20;0.60;;;;;;;12.63;71.14;99761.00;5075068;28;20421;-64
2023/03/25 10:15:42;;;;;;;4.40;0.77;;;;;;;12.85;73.00;99747.03;5068491;28;20800;-64
2023/03/25 10:18:32;;;;;;;9.27;0.90;;;;;;;13.06;69.24;99736.06;5071413;28;20495;-64
2023/03/25 10:21:07;;;;;;;4.27;0.63;;;;;;;13.07;67.08;99750.47;5073352;28;20433;-63
2023/03/25 10:23:41;;;;;;;8.00;0.90;;;;;;;13.03;67.33;99744.91;5070978;28;20891;-65
2023/03/25 10:26:15;;;;;;;4.00;0.40;;;;;;;13.07;69.07;99753.97;5068935;28;20856;-66
2023/03/25 10:28:46;;;;;;;5.10;0.93;;;;;;;13.15;63.69;99746.84;5070945;28;20434;-64
2023/03/25 10:31:16;;;;;;;5.80;1.03;;;;;;;13.05;63.84;99744.56;5074598;28;20424;-64
2023/03/25 10:33:50;;;;;;;6.40;0.73;;;;;;;13.08;65.31;99736.53;5074079;28;20433;-64
2023/03/25 10:36:20;;;;;;;4.10;0.50;;;;;;;13.18;66.23;99732.56;5074557;28;20913;-64
2023/03/25 10:38:53;;;;;;;6.93;0.60;;;;;;;13.29;65.50;99735.66;5074257;28;20453;-63
2023/03/25 10:41:24;;;;;;;4.70;1.00;;;;;;;13.51;64.82;99727.03;5074638;28;20440;-64
2023/03/25 10:43:52;;;;;;;4.97;1.00;;;;;;;13.65;63.33;99731.34;5072734;28;20434;-64
2023/03/25 10:46:27;;;;;;;7.00;1.77;;;;;;;13.73;63.31;99733.94;5074535;28;20904;-64
2023/03/25 10:48:53;;;;;;;5.37;0.83;;;;;;;13.62;63.53;99732.81;5074680;28;20465;-64
2023/03/25 10:51:24;;;;;;;4.50;0.80;;;;;;;13.59;63.64;99728.03;5074310;28;20930;-64
2023/03/25 10:53:52;;;;;;;8.00;0.90;;;;;;;13.74;64.28;99730.06;5074406;28;20438;-64
2023/03/25 10:56:23;;;;;;;5.67;0.80;;;;;;;13.97;64.50;99729.56;5074261;28;20467;-63
2023/03/25 10:58:53;;;;;;;6.30;1.97;;;;;;;14.06;63.56;99732.94;5073775;28;20422;-64
2023/03/25 11:01:27;;;;;;;4.70;1.00;;;;;;;14.04;63.03;99732.50;5074296;28;20794;-64
2023/03/25 11:03:55;;;;;;;5.30;1.00;;;;;;;13.84;61.67;99740.47;5073627;28;20465;-65
2023/03/25 11:06:25;;;;;;;4.43;0.67;;;;;;;13.76;63.64;99738.66;5073337;28;20575;-66
2023/03/25 11:09:14;;;;;;;4.47;0.80;;;;;;;13.55;63.21;99727.94;5053810;28;20450;-65
2023/03/25 11:11:42;;;;;;;4.80;0.60;;;;;;;13.10;67.12;99738.88;5063566;28;20516;-65
2023/03/25 11:14:10;;;;;;;4.10;0.50;;;;;;;12.65;71.36;99761.44;5074251;28;20445;-65
2023/03/25 11:16:42;;;;;;;5.70;0.70;;;;;;;11.68;78.64;99770.66;5073083;28;20477;-66
2023/03/25 11:19:17;;;;;;;4.97;1.10;;;;;;;11.04;85.18;99774.31;5073528;28;20433;-67
2023/03/25 11:21:47;;;;;;;4.00;0.40;;;;;;;10.43;87.74;99753.88;5090287;22;20501;-69
2023/03/25 11:24:18;;;;;;;4.20;0.50;;;;;;;9.91;94.73;99745.72;5073774;28;20527;-69
2023/03/25 11:26:48;;;;;;;4.23;0.70;;;;;;;9.89;98.28;99731.72;5074012;28;20428;-69
2023/03/25 11:29:18;;;;;;;3.90;0.40;;;;;;;10.51;100.00;99717.88;5073970;28;20469;-69
2023/03/25 11:31:56;;;;;;;4.10;0.43;;;;;;;11.32;100.00;99723.16;5074152;28;20468;-69
2023/03/25 11:34:24;;;;;;;4.50;0.63;;;;;;;11.58;97.37;99716.78;5073881;28;20444;-69
2023/03/25 11:36:54;;;;;;;4.10;0.50;;;;;;;11.67;97.02;99714.03;5073510;28;20437;-69
2023/03/25 11:39:32;;;;;;;6.73;0.83;;;;;;;12.23;96.82;99712.66;5074202;28;20418;-69
2023/03/25 11:42:00;;;;;;;4.20;0.63;;;;;;;12.76;95.32;99707.50;5073901;28;20544;-69
2023/03/25 11:44:29;;;;;;;4.53;0.83;;;;;;;13.87;91.58;99715.28;5073163;28;20444;-69
2023/03/25 11:46:58;;;;;;;5.57;0.67;;;;;;;14.25;85.76;99710.50;5073336;28;20441;-69